Time;durP1;ratioP1;P1;durP2;ratioP2;P2;SDS_P1;SDS_P2;PMS_P1;PMS_P2;Temp;Humidity;BMP_temperature;BMP_pressure;BME280_temperature;BME280_humidity;BME280_pressure;Samples;Min_cycle;Max_cycle;Signal;HPM_P1;HPM_P2
2022/11/14 00:03:54;;;;;;;33.83;17.80;;;;;;;6.57;100.00;100412.50;20904753;28;20049;-76
2022/11/14 00:13:56;;;;;;;33.03;17.92;;;;;;;6.57;100.00;100407.28;20947619;28;20044;-75
2022/11/14 00:23:57;;;;;;;29.20;15.82;;;;;;;6.65;100.00;100387.31;20987615;28;20651;-75
2022/11/14 00:33:58;;;;;;;31.10;16.88;;;;;;;6.66;100.00;100382.13;20986197;28;20049;-75
2022/11/14 00:43:59;;;;;;;33.97;17.88;;;;;;;6.68;100.00;100374.31;20984757;28;20049;-75
2022/11/14 00:54:01;;;;;;;28.33;16.08;;;;;;;6.71;100.00;100379.53;21008031;22;20054;-71
2022/11/14 01:04:02;;;;;;;31.73;17.13;;;;;;;6.73;100.00;100374.31;20984964;28;20122;-72
2022/11/14 01:14:03;;;;;;;31.33;16.67;;;;;;;6.74;100.00;100387.31;20985141;28;20451;-70
2022/11/14 01:24:05;;;;;;;26.73;15.15;;;;;;;6.76;100.00;100371.72;21006467;28;20056;-71
2022/11/14 01:34:06;;;;;;;22.17;13.07;;;;;;;6.80;100.00;100358.69;21066650;28;20093;-72
2022/11/14 01:44:07;;;;;;;22.23;12.73;;;;;;;6.81;100.00;100336.16;21011531;28;20524;-72
2022/11/14 01:54:09;;;;;;;22.42;12.95;;;;;;;6.79;100.00;100310.13;20982527;28;20056;-72
2022/11/14 02:04:11;;;;;;;22.88;13.30;;;;;;;6.77;100.00;100285.84;20982022;28;20819;-71
2022/11/14 02:14:15;;;;;;;23.20;13.87;;;;;;;6.78;100.00;100287.56;20982922;28;20421;-71
2022/11/14 02:24:16;;;;;;;26.52;14.15;;;;;;;6.76;100.00;100276.31;20982396;28;20044;-71
2022/11/14 02:34:19;;;;;;;22.42;12.80;;;;;;;6.79;100.00;100278.03;20981383;28;20044;-71
2022/11/14 02:44:20;;;;;;;24.20;13.85;;;;;;;6.72;100.00;100255.50;20936016;28;20052;-71
2022/11/14 02:54:21;;;;;;;24.67;13.23;;;;;;;6.68;100.00;100252.03;20913140;28;20059;-71
2022/11/14 03:04:23;;;;;;;23.50;12.82;;;;;;;6.60;100.00;100251.19;20911600;28;20068;-71
2022/11/14 03:14:24;;;;;;;22.65;13.07;;;;;;;6.69;100.00;100253.78;20911120;28;20053;-71
2022/11/14 03:24:25;;;;;;;25.13;13.98;;;;;;;6.74;100.00;100246.81;20910620;28;20497;-71
2022/11/14 03:34:27;;;;;;;22.08;12.00;;;;;;;6.67;100.00;100252.91;20909192;28;20045;-71
2022/11/14 03:44:28;;;;;;;25.67;12.43;;;;;;;6.61;100.00;100238.19;20966890;28;20054;-72
2022/11/14 03:54:29;;;;;;;26.10;13.32;;;;;;;6.62;100.00;100252.94;20993497;28;20571;-72
2022/11/14 04:04:30;;;;;;;32.03;15.77;;;;;;;6.47;100.00;100239.06;20988501;28;20048;-70
2022/11/14 04:14:32;;;;;;;28.02;13.48;;;;;;;6.50;100.00;100236.47;20986048;28;20102;-71
2022/11/14 04:24:33;;;;;;;28.65;13.40;;;;;;;6.45;100.00;100214.81;20987729;28;20090;-70
2022/11/14 04:34:34;;;;;;;26.05;14.02;;;;;;;6.34;100.00;100204.44;20987099;28;20055;-71
2022/11/14 04:44:36;;;;;;;31.73;14.00;;;;;;;6.31;100.00;100199.22;20986252;28;20113;-71
2022/11/14 04:54:37;;;;;;;29.92;14.10;;;;;;;6.31;100.00;100207.88;20984802;28;20057;-71
2022/11/14 05:04:38;;;;;;;25.92;12.77;;;;;;;6.21;100.00;100206.16;20983400;28;20052;-71
2022/11/14 05:14:39;;;;;;;26.85;13.38;;;;;;;6.20;100.00;100203.59;20984996;28;20098;-71
2022/11/14 05:24:41;;;;;;;26.95;13.23;;;;;;;6.22;100.00;100207.91;20984917;28;20601;-70
2022/11/14 05:34:42;;;;;;;27.27;13.10;;;;;;;6.13;100.00;100197.50;21019478;28;20056;-70
2022/11/14 05:44:43;;;;;;;29.90;14.75;;;;;;;6.06;100.00;100185.41;21004853;28;20126;-70
2022/11/14 05:54:44;;;;;;;28.10;14.15;;;;;;;5.91;100.00;100163.75;20983334;28;20110;-71
2022/11/14 06:04:46;;;;;;;26.17;14.15;;;;;;;5.72;100.00;100155.94;20983097;28;20102;-72
2022/11/14 06:14:47;;;;;;;26.23;13.75;;;;;;;5.70;100.00;100158.53;20989896;28;20059;-70
2022/11/14 06:24:48;;;;;;;25.40;14.13;;;;;;;5.62;100.00;100168.06;21027986;28;20412;-71
2022/11/14 06:34:49;;;;;;;30.23;15.07;;;;;;;5.49;100.00;100143.78;21081038;28;20044;-71
2022/11/14 06:44:51;;;;;;;27.60;15.68;;;;;;;5.36;100.00;100144.63;21019579;28;20412;-71
2022/11/14 06:54:52;;;;;;;28.02;17.00;;;;;;;5.24;100.00;100153.28;20996893;28;20110;-71
2022/11/14 07:04:53;;;;;;;27.20;15.48;;;;;;;5.08;100.00;100175.75;20992457;28;20051;-69
2022/11/14 07:14:55;;;;;;;27.30;15.40;;;;;;;5.03;100.00;100192.13;20993214;28;20048;-69
2022/11/14 07:24:56;;;;;;;27.23;15.85;;;;;;;5.12;100.00;100185.25;20991278;28;20056;-69
2022/11/14 07:34:57;;;;;;;24.98;14.13;;;;;;;5.20;100.00;100190.47;20991820;28;20099;-69
2022/11/14 07:45:02;;;;;;;20.67;13.13;;;;;;;5.35;100.00;100193.09;20928998;28;20482;-69
2022/11/14 07:55:04;;;;;;;27.85;15.45;;;;;;;5.53;100.00;100199.22;20906616;28;20058;-70
2022/11/14 08:05:05;;;;;;;28.20;15.70;;;;;;;5.55;100.00;100192.28;20906379;28;20098;-71
2022/11/14 08:15:06;;;;;;;24.75;14.30;;;;;;;5.40;100.00;100173.22;20904775;28;20049;-70
2022/11/14 08:25:07;;;;;;;26.08;15.68;;;;;;;5.61;100.00;100190.56;20905922;28;20110;-71
2022/11/14 08:35:09;;;;;;;22.95;13.68;;;;;;;5.43;100.00;100181.88;20904178;28;20057;-71
2022/11/14 08:45:10;;;;;;;22.42;12.48;;;;;;;5.57;100.00;100198.34;20967136;28;20053;-71
2022/11/14 08:55:11;;;;;;;20.58;12.40;;;;;;;5.60;100.00;100201.78;20960498;28;20049;-70
2022/11/14 09:05:13;;;;;;;21.08;12.63;;;;;;;5.73;100.00;100202.69;20908065;28;20071;-70
2022/11/14 09:15:14;;;;;;;23.88;14.23;;;;;;;5.73;100.00;100192.28;20907697;28;20058;-70
2022/11/14 09:25:15;;;;;;;24.95;13.93;;;;;;;5.89;100.00;100187.94;20916500;28;20062;-70
2022/11/14 09:35:16;;;;;;;21.38;13.27;;;;;;;6.13;100.00;100180.22;20918575;28;20072;-71
2022/11/14 09:45:18;;;;;;;24.17;12.85;;;;;;;6.20;100.00;100182.78;20967465;28;20056;-70
2022/11/14 09:55:19;;;;;;;20.65;12.70;;;;;;;6.32;100.00;100182.75;21018434;28;20408;-69
2022/11/14 10:05:21;;;;;;;20.25;12.07;;;;;;;6.33;100.00;100174.09;21015659;28;20044;-71
2022/11/14 10:15:22;;;;;;;21.35;12.77;;;;;;;6.12;100.00;100175.84;21008844;28;20080;-71
2022/11/14 10:25:23;;;;;;;24.25;14.60;;;;;;;6.09;100.00;100170.69;21052599;28;20063;-70
2022/11/14 10:35:25;;;;;;;21.40;13.30;;;;;;;6.02;100.00;100162.88;21091803;28;20048;-69
2022/11/14 10:45:32;;;;;;;24.58;14.35;;;;;;;6.20;100.00;100168.06;21023031;28;20059;-69
2022/11/14 10:55:33;;;;;;;23.08;13.85;;;;;;;6.25;100.00;100149.84;21007234;28;20519;-69
2022/11/14 11:05:58;;;;;;;25.58;13.73;;;;;;;6.36;100.00;100135.94;20992243;28;20044;-69
2022/11/14 11:16:00;;;;;;;;;;;;;;;6.28;100.00;100126.44;20996083;28;20051;-70
2022/11/14 11:26:08;;;;;;;48.60;20.73;;;;;;;6.35;100.00;100121.22;21076519;28;19920;-69
2022/11/14 11:36:09;;;;;;;24.45;14.07;;;;;;;6.50;100.00;100114.22;21075101;28;20052;-69
2022/11/14 11:46:10;;;;;;;23.83;14.43;;;;;;;6.92;100.00;100103.63;21000811;28;20591;-70
2022/11/14 11:56:12;;;;;;;20.98;12.88;;;;;;;7.07;100.00;100099.19;20990489;28;20056;-70
2022/11/14 12:06:13;;;;;;;20.98;13.02;;;;;;;7.13;100.00;100102.59;20989456;28;20510;-69
2022/11/14 12:16:14;;;;;;;23.38;13.93;;;;;;;7.58;100.00;100094.50;20987135;28;20154;-71
2022/11/14 12:26:16;;;;;;;26.30;14.68;;;;;;;7.53;100.00;100096.28;20987969;28;20057;-70
2022/11/14 12:36:17;;;;;;;25.23;13.75;;;;;;;7.60;100.00;100088.38;20986873;28;20044;-70
2022/11/14 12:46:18;;;;;;;25.17;14.43;;;;;;;7.88;100.00;100078.56;20986009;28;20045;-70
2022/11/14 12:56:20;;;;;;;20.55;12.55;;;;;;;8.14;100.00;100090.44;20986554;28;20048;-70
2022/11/14 13:06:21;;;;;;;21.85;12.82;;;;;;;8.35;100.00;100079.78;20984390;28;20056;-67
2022/11/14 13:26:43;;;;;;;13.98;8.95;;;;;;;8.30;100.00;100073.78;20983150;28;20079;-67
2022/11/14 13:36:44;;;;;;;13.13;8.93;;;;;;;8.46;100.00;100062.28;20983193;28;20479;-67
2022/11/14 13:46:45;;;;;;;16.40;9.63;;;;;;;8.59;100.00;100057.78;20905299;28;20049;-68
2022/11/14 13:56:46;;;;;;;14.40;8.80;;;;;;;8.71;100.00;100048.91;20898937;28;20048;-68
2022/11/14 14:06:48;;;;;;;16.15;9.80;;;;;;;8.51;100.00;100048.31;20898279;28;20049;-68
2022/11/14 14:16:49;;;;;;;18.13;10.73;;;;;;;8.53;100.00;100028.28;20896792;28;20053;-68
2022/11/14 14:26:54;;;;;;;17.25;11.15;;;;;;;8.66;100.00;100037.69;20941501;28;20458;-68
2022/11/14 14:36:55;;;;;;;19.13;10.00;;;;;;;8.81;100.00;100053.13;20988956;28;20044;-68
2022/11/14 14:46:57;;;;;;;17.92;9.98;;;;;;;8.93;100.00;100047.75;20914161;28;20474;-68
2022/11/14 14:57:01;;;;;;;18.17;11.65;;;;;;;8.82;100.00;100048.78;20910922;28;20424;-68
2022/11/14 15:07:02;;;;;;;18.33;11.70;;;;;;;8.72;100.00;100033.25;20909818;28;20163;-68
2022/11/14 15:17:04;;;;;;;19.63;11.50;;;;;;;8.57;100.00;100038.66;20910358;28;20083;-68
2022/11/14 15:27:05;;;;;;;23.30;13.38;;;;;;;8.40;100.00;100043.25;20922712;28;20047;-72
2022/11/14 15:37:07;;;;;;;20.60;13.00;;;;;;;8.16;100.00;100031.34;21090013;28;20120;-71
2022/11/14 15:47:09;;;;;;;18.85;11.48;;;;;;;7.90;100.00;100035.09;20998584;28;20049;-70
2022/11/14 15:57:10;;;;;;;18.80;11.88;;;;;;;7.65;100.00;100038.81;20988892;28;20487;-71
2022/11/14 16:07:12;;;;;;;25.05;15.38;;;;;;;7.34;100.00;100046.06;20987408;28;20067;-71
2022/11/14 16:17:13;;;;;;;33.50;21.65;;;;;;;7.10;100.00;100044.53;20984535;28;20048;-71
2022/11/14 16:27:15;;;;;;;24.75;15.77;;;;;;;6.94;100.00;100060.22;20985079;28;20056;-71
2022/11/14 16:37:16;;;;;;;23.45;14.10;;;;;;;6.71;100.00;100059.50;20985881;28;20048;-71
2022/11/14 16:47:17;;;;;;;29.23;17.23;;;;;;;6.55;100.00;100076.06;20985463;28;20097;-71
2022/11/14 16:57:19;;;;;;;32.63;14.77;;;;;;;6.49;100.00;100087.34;20983822;28;20102;-72
2022/11/14 17:07:20;;;;;;;26.67;15.48;;;;;;;6.45;100.00;100102.97;20952516;28;20098;-71
2022/11/14 17:17:23;;;;;;;23.90;14.60;;;;;;;6.41;100.00;100102.97;20956460;28;20048;-72
2022/11/14 17:27:24;;;;;;;25.58;16.15;;;;;;;6.47;100.00;100099.50;20899982;28;20102;-72
2022/11/14 17:37:25;;;;;;;38.38;21.77;;;;;;;6.57;100.00;100100.34;20907686;28;20071;-71
2022/11/14 17:47:27;;;;;;;32.33;20.63;;;;;;;6.65;100.00;100095.94;20892818;28;20044;-71
2022/11/14 17:57:28;;;;;;;27.48;17.05;;;;;;;6.81;100.00;100097.63;20891907;28;20052;-71
2022/11/14 18:07:29;;;;;;;21.60;14.27;;;;;;;6.93;100.00;100089.72;20958675;28;20056;-73
2022/11/14 18:17:31;;;;;;;19.00;12.38;;;;;;;6.90;100.00;100094.09;20984122;28;20048;-72
2022/11/14 18:27:32;;;;;;;25.35;15.90;;;;;;;7.06;100.00;100110.50;20987743;28;20078;-72
2022/11/14 18:37:33;;;;;;;56.20;31.35;;;;;;;7.17;100.00;100103.47;20985415;28;20053;-72
2022/11/14 18:47:35;;;;;;;41.72;26.80;;;;;;;7.10;100.00;100101.78;20942275;28;20059;-72
2022/11/14 18:57:36;;;;;;;34.88;23.00;;;;;;;6.89;100.00;100089.75;20965760;23;20045;-72
2022/11/14 19:07:38;;;;;;;43.30;27.05;;;;;;;6.81;100.00;100084.59;20902590;28;20049;-71
2022/11/14 19:17:39;;;;;;;26.25;16.55;;;;;;;6.69;100.00;100089.88;20902781;28;20080;-71
2022/11/14 19:27:40;;;;;;;36.92;22.48;;;;;;;6.55;100.00;100092.53;20898932;28;20072;-71
2022/11/14 19:37:41;;;;;;;45.70;25.55;;;;;;;6.51;100.00;100097.75;20900999;28;20048;-71
2022/11/14 19:47:43;;;;;;;50.25;30.33;;;;;;;6.59;100.00;100102.03;20981993;28;20424;-71
2022/11/14 19:57:44;;;;;;;64.10;40.47;;;;;;;6.68;100.00;100094.19;20980676;28;20105;-72
2022/11/14 20:07:45;;;;;;;73.43;45.55;;;;;;;6.71;100.00;100097.66;20978564;28;20118;-71
2022/11/14 20:17:47;;;;;;;75.18;47.47;;;;;;;6.76;100.00;100098.53;20910574;28;20083;-71
2022/11/14 20:27:48;;;;;;;67.53;44.13;;;;;;;6.91;100.00;100095.81;20896436;28;20064;-71
2022/11/14 20:37:49;;;;;;;66.75;41.00;;;;;;;7.07;100.00;100091.38;20896910;28;20052;-71
2022/11/14 20:47:50;;;;;;;77.03;44.47;;;;;;;7.16;100.00;100086.97;20975373;28;20052;-71
2022/11/14 20:57:52;;;;;;;60.30;38.13;;;;;;;7.19;100.00;100088.72;20975342;28;20091;-71
2022/11/14 21:07:53;;;;;;;104.13;54.65;;;;;;;7.21;100.00;100102.56;20973617;28;20048;-71
2022/11/14 21:17:54;;;;;;;111.03;59.00;;;;;;;7.07;100.00;100105.25;20904641;28;20508;-71
2022/11/14 21:27:55;;;;;;;60.65;39.50;;;;;;;7.08;100.00;100104.38;20921697;28;20063;-70
2022/11/14 21:37:57;;;;;;;60.08;38.30;;;;;;;7.13;100.00;100106.97;20939192;28;20127;-70
2022/11/14 21:47:58;;;;;;;60.47;38.38;;;;;;;7.33;100.00;100114.63;20972771;28;20102;-69
2022/11/14 21:57:59;;;;;;;53.65;34.13;;;;;;;7.41;100.00;100108.50;20974037;28;20059;-70
2022/11/14 22:08:01;;;;;;;49.80;32.00;;;;;;;7.51;100.00;100122.31;20903100;28;20049;-69
2022/11/14 22:18:02;;;;;;;44.53;28.23;;;;;;;7.65;100.00;100119.59;20959442;28;20110;-66
2022/11/14 22:28:03;;;;;;;51.00;31.38;;;;;;;7.70;100.00;100104.78;20973069;28;20462;-69
2022/11/14 22:38:04;;;;;;;49.55;31.13;;;;;;;7.78;100.00;100108.19;20967499;28;20459;-69
2022/11/14 22:48:06;;;;;;;46.85;28.50;;;;;;;7.84;100.00;100122.91;20889845;28;20449;-69
2022/11/14 22:58:07;;;;;;;43.58;26.33;;;;;;;7.82;100.00;100125.53;20898274;28;20080;-70
2022/11/14 23:08:08;;;;;;;41.40;26.67;;;;;;;7.81;100.00;100121.22;20981087;28;20116;-69
2022/11/14 23:18:10;;;;;;;40.50;25.15;;;;;;;7.65;100.00;100106.56;20993573;28;20131;-69
2022/11/14 23:28:11;;;;;;;42.55;26.50;;;;;;;7.56;100.00;100107.50;20993352;28;20056;-71
2022/11/14 23:38:13;;;;;;;45.95;28.27;;;;;;;7.45;100.00;100099.78;20985606;28;20070;-70
2022/11/14 23:48:14;;;;;;;38.35;24.77;;;;;;;7.52;100.00;100105.84;20908116;28;20053;-70
2022/11/14 23:58:15;;;;;;;29.25;20.02;;;;;;;7.57;100.00;100088.41;20907412;28;20090;-70
